SEMIR ESMQ-ESMQ

Flight info

Callsign SEMIR
Flight time 0h 3m
Altitude 10000
Route MOVIS DCT LUTAL
Aircraft DA42/L-SDFGRY/C

Departure

Time 2026-05-05 16:58
Airport Kalmar Airport (ESMQ)

Arrival

Time 2026-05-05 17:02
Airport Kalmar Airport (ESMQ)
Time Latitude Longitude Altitude Speed Heading
2026-05-05 16:58 56.72919 16.36098 1866 ft 127 kts 176°
2026-05-05 16:58 56.72139 16.36357 1600 ft 103 kts 185°
2026-05-05 16:58 56.71433 16.36334 1252 ft 96 kts 196°
2026-05-05 16:59 56.70830 16.36143 1115 ft 88 kts 202°
2026-05-05 16:59 56.70212 16.35988 1128 ft 94 kts 188°
2026-05-05 16:59 56.69566 16.35864 1097 ft 90 kts 207°
2026-05-05 16:59 56.69046 16.35418 987 ft 82 kts 217°
2026-05-05 17:00 56.68567 16.34887 963 ft 81 kts 223°
2026-05-05 17:00 56.68102 16.34325 993 ft 81 kts 219°
2026-05-05 17:00 56.67632 16.33752 959 ft 79 kts 225°
2026-05-05 17:00 56.67225 16.33054 735 ft 86 kts 230°
2026-05-05 17:01 56.66890 16.32108 568 ft 87 kts 249°
2026-05-05 17:01 56.66864 16.31017 468 ft 91 kts 289°
2026-05-05 17:01 56.67214 16.30116 265 ft 85 kts 329°
2026-05-05 17:01 56.67734 16.29534 123 ft 92 kts 336°
2026-05-05 17:02 56.68274 16.29013 20 ft 72 kts 337°
2026-05-05 17:02 56.68543 16.28771 18 ft 21 kts 340°
2026-05-05 17:02 56.68572 16.28737 18 ft 7 kts 146°
2026-05-05 17:02 56.68493 16.28635 18 ft 13 kts 226°
2026-05-05 17:03 56.68489 16.28627 18 ft 0 kts 224°
2026-05-05 17:03 56.68434 16.28528 18 ft 19 kts 228°
2026-05-05 17:03 56.68347 16.28350 18 ft 19 kts 229°
2026-05-05 17:03 56.68238 16.28211 17 ft 22 kts 181°
2026-05-05 17:04 56.68069 16.28205 17 ft 30 kts 176°
2026-05-05 17:04 56.67949 16.28336 17 ft 16 kts 126°
2026-05-05 17:04 56.67885 16.28597 18 ft 20 kts 103°
2026-05-05 17:04 56.67852 16.28787 19 ft 11 kts 153°
2026-05-05 17:05 56.67835 16.28825 19 ft 5 kts 18°
2026-05-05 17:05 56.67838 16.28827 19 ft 0 kts 12°